Dew Point Data


Current

Temp 77.0 F. Dew Point 75.0 F.


Dew Point Comfort Scale

dewpoints

Date, Time Temperature Dew Point
Mon Jun 24 00:08:04 2019 69.0 F. 66.0 F.
Mon Jun 24 01:08:05 2019 69.0 F. 66.0 F.
Mon Jun 24 02:08:04 2019 68.0 F. 66.0 F.
Mon Jun 24 03:08:05 2019 68.0 F. 66.0 F.
Mon Jun 24 04:08:04 2019 68.0 F. 64.9 F.
Mon Jun 24 05:08:05 2019 69.0 F. 64.9 F.
Mon Jun 24 06:08:06 2019 68.0 F. 64.9 F.
Mon Jun 24 07:08:05 2019 67.0 F. 64.0 F.
Mon Jun 24 08:08:05 2019 66.0 F. 64.0 F.
Mon Jun 24 09:08:05 2019 68.0 F. 64.9 F.
Mon Jun 24 10:08:05 2019 70.0 F. 66.0 F.
Mon Jun 24 11:08:05 2019 75.0 F. 66.9 F.
Mon Jun 24 12:08:14 2019 78.0 F. 68.0 F.
Mon Jun 24 13:08:05 2019 80.0 F. 66.9 F.
Mon Jun 24 14:08:05 2019 81.0 F. 66.9 F.
Mon Jun 24 15:08:05 2019 82.0 F. 68.0 F.
Mon Jun 24 16:08:40 2019
Mon Jun 24 17:08:05 2019 80.0 F. 66.9 F.
Mon Jun 24 18:08:05 2019 82.0 F. 66.0 F.
Mon Jun 24 19:08:05 2019 81.0 F. 66.0 F.
Mon Jun 24 20:08:05 2019 78.0 F. 64.0 F.
Mon Jun 24 21:08:05 2019 74.0 F. 62.1 F.
Mon Jun 24 22:08:05 2019 70.0 F. 62.1 F.
Mon Jun 24 23:08:04 2019 70.0 F. 61.0 F.
Tue Jun 25 00:08:05 2019 67.0 F. 63.0 F.
Tue Jun 25 01:08:05 2019 66.0 F. 62.1 F.
Tue Jun 25 02:08:04 2019 66.0 F. 62.1 F.
Tue Jun 25 03:08:05 2019 63.0 F. 61.0 F.
Tue Jun 25 04:08:04 2019 62.0 F. 61.0 F.
Tue Jun 25 05:08:05 2019 61.0 F. 60.1 F.
Tue Jun 25 06:08:04 2019 61.0 F. 60.1 F.
Tue Jun 25 07:08:04 2019 61.0 F. 60.1 F.
Tue Jun 25 08:08:04 2019 70.0 F. 63.0 F.
Tue Jun 25 09:08:04 2019 75.0 F. 64.9 F.
Tue Jun 25 10:08:04 2019 75.0 F. 64.9 F.
Tue Jun 25 11:08:05 2019 79.0 F. 61.0 F.
Tue Jun 25 12:08:04 2019 81.0 F. 63.0 F.
Tue Jun 25 13:09:00 2019
Tue Jun 25 14:08:05 2019 83.0 F. 64.0 F.
Tue Jun 25 15:08:04 2019 83.0 F. 64.0 F.
Tue Jun 25 16:08:04 2019 84.0 F. 64.9 F.
Tue Jun 25 17:09:00 2019
Tue Jun 25 18:09:00 2019
Tue Jun 25 19:09:00 2019
Tue Jun 25 20:09:00 2019
Tue Jun 25 21:09:00 2019
Tue Jun 25 22:08:14 2019 72.0 F. 66.9 F.
Tue Jun 25 23:08:15 2019 72.0 F. 66.9 F.
Wed Jun 26 00:08:15 2019 69.0 F. 66.9 F.
Wed Jun 26 01:08:14 2019 69.0 F. 66.9 F.
Wed Jun 26 02:08:14 2019 68.0 F. 66.9 F.
Wed Jun 26 03:08:15 2019 67.0 F. 66.0 F.
Wed Jun 26 04:08:15 2019 67.0 F. 66.0 F.
Wed Jun 26 05:08:15 2019 66.0 F. 66.0 F.
Wed Jun 26 06:08:14 2019 66.0 F. 66.0 F.
Wed Jun 26 07:08:14 2019 66.0 F. 66.0 F.
Wed Jun 26 08:08:15 2019 75.0 F. 72.0 F.
Wed Jun 26 09:08:15 2019 78.0 F. 72.0 F.
Wed Jun 26 10:08:05 2019 82.0 F. 73.0 F.
Wed Jun 26 11:08:04 2019 85.0 F. 73.9 F.
Wed Jun 26 12:08:05 2019 86.0 F. 73.9 F.
Wed Jun 26 13:08:04 2019 87.0 F. 73.9 F.
Wed Jun 26 14:08:05 2019 88.0 F. 73.9 F.
Wed Jun 26 15:08:04 2019 88.0 F. 73.0 F.
Wed Jun 26 16:08:05 2019 88.0 F. 71.1 F.
Wed Jun 26 17:08:40 2019
Wed Jun 26 18:08:39 2019
Wed Jun 26 19:08:40 2019
Wed Jun 26 20:08:05 2019 69.0 F. 66.0 F.
Wed Jun 26 21:08:05 2019 69.0 F. 66.9 F.
Wed Jun 26 22:08:05 2019 69.0 F. 66.9 F.
Wed Jun 26 23:08:05 2019 68.0 F. 66.9 F.
Thu Jun 27 00:08:05 2019 68.0 F. 66.9 F.
Thu Jun 27 01:08:04 2019 68.0 F. 66.9 F.
Thu Jun 27 02:08:05 2019 68.0 F. 66.9 F.
Thu Jun 27 03:08:05 2019 67.0 F. 66.0 F.
Thu Jun 27 04:08:05 2019 68.0 F. 66.9 F.
Thu Jun 27 05:08:05 2019 68.0 F. 66.0 F.
Thu Jun 27 06:08:04 2019 68.0 F. 66.9 F.
Thu Jun 27 07:08:04 2019 68.0 F. 66.9 F.
Thu Jun 27 08:08:05 2019 69.0 F. 66.9 F.
Thu Jun 27 09:08:16 2019 70.0 F. 68.0 F.
Thu Jun 27 10:08:04 2019 73.0 F. 69.8 F.
Thu Jun 27 11:08:23 2019 75.0 F. 70.0 F.
Thu Jun 27 12:08:05 2019 78.0 F. 71.1 F.
Thu Jun 27 13:08:04 2019 81.0 F. 68.0 F.
Thu Jun 27 14:08:05 2019 83.0 F. 69.1 F.
Thu Jun 27 15:08:05 2019 84.0 F. 69.1 F.
Thu Jun 27 16:09:00 2019
Thu Jun 27 17:09:00 2019
Thu Jun 27 18:09:00 2019
Thu Jun 27 19:09:00 2019
Thu Jun 27 20:09:00 2019
Thu Jun 27 21:08:15 2019 76.0 F. 71.1 F.
Thu Jun 27 22:08:15 2019 76.0 F. 71.1 F.
Thu Jun 27 23:08:15 2019 73.0 F. 71.1 F.
Fri Jun 28 00:08:15 2019 71.0 F. 71.1 F.
Fri Jun 28 01:08:14 2019 71.0 F. 71.1 F.
Fri Jun 28 02:08:15 2019 71.0 F. 69.1 F.
Fri Jun 28 03:08:15 2019 70.0 F. 69.1 F.
Fri Jun 28 04:08:14 2019 70.0 F. 69.1 F.
Fri Jun 28 05:08:14 2019 69.0 F. 68.0 F.
Fri Jun 28 06:08:15 2019 69.0 F. 68.0 F.
Fri Jun 28 07:08:15 2019 69.0 F. 68.0 F.
Fri Jun 28 08:08:14 2019 73.0 F. 70.0 F.
Fri Jun 28 09:08:15 2019 76.0 F. 72.0 F.
Fri Jun 28 10:09:00 2019
Fri Jun 28 11:09:00 2019
Fri Jun 28 12:09:00 2019
Fri Jun 28 13:09:00 2019
Fri Jun 28 14:09:00 2019
Fri Jun 28 15:09:00 2019
Fri Jun 28 16:09:00 2019
Fri Jun 28 17:09:00 2019
Fri Jun 28 18:08:15 2019 87.0 F. 71.1 F.
Fri Jun 28 19:08:15 2019 84.0 F. 70.0 F.
Fri Jun 28 20:08:15 2019 84.0 F. 70.0 F.
Fri Jun 28 21:08:14 2019 82.0 F. 70.0 F.
Fri Jun 28 22:08:15 2019 76.0 F. 70.0 F.
Fri Jun 28 23:08:14 2019 76.0 F. 70.0 F.
Sat Jun 29 00:08:15 2019 72.0 F. 70.0 F.
Sat Jun 29 01:08:14 2019 72.0 F. 70.0 F.
Sat Jun 29 02:08:15 2019 71.0 F. 70.0 F.
Sat Jun 29 03:08:14 2019 70.0 F. 69.1 F.
Sat Jun 29 04:08:15 2019 70.0 F. 69.1 F.
Sat Jun 29 05:08:15 2019 70.0 F. 69.1 F.
Sat Jun 29 06:08:15 2019 68.0 F. 68.0 F.
Sat Jun 29 07:08:51 2019
Sat Jun 29 08:08:14 2019 72.0 F. 71.1 F.
Sat Jun 29 09:08:15 2019 81.0 F. 71.1 F.
Sat Jun 29 10:09:00 2019
Sat Jun 29 11:09:00 2019
Sat Jun 29 12:09:00 2019
Sat Jun 29 13:09:00 2019
Sat Jun 29 14:09:00 2019
Sat Jun 29 15:09:00 2019
Sat Jun 29 16:09:00 2019
Sat Jun 29 17:09:00 2019
Sat Jun 29 18:08:14 2019 88.0 F. 70.0 F.
Sat Jun 29 19:08:14 2019 88.0 F. 70.0 F.
Sat Jun 29 20:08:15 2019 87.0 F. 70.0 F.
Sat Jun 29 21:08:14 2019 80.0 F. 73.9 F.
Sat Jun 29 22:08:16 2019 78.0 F. 75.0 F.
Sat Jun 29 23:08:14 2019 76.0 F. 73.0 F.
Sun Jun 30 00:08:15 2019 74.0 F. 72.0 F.
Sun Jun 30 01:08:15 2019 74.0 F. 72.0 F.
Sun Jun 30 02:08:14 2019 73.0 F. 72.0 F.
Sun Jun 30 03:08:15 2019 72.0 F. 72.0 F.
Sun Jun 30 04:08:15 2019 72.0 F. 72.0 F.
Sun Jun 30 05:08:15 2019 71.0 F. 70.0 F.
Sun Jun 30 06:08:15 2019 71.0 F. 70.0 F.
Sun Jun 30 07:08:15 2019 71.0 F. 70.0 F.
Sun Jun 30 08:08:15 2019 77.0 F. 73.9 F.
Sun Jun 30 09:08:15 2019 77.0 F. 73.9 F.
Sun Jun 30 10:08:15 2019 85.0 F. 73.0 F.
Sun Jun 30 11:08:15 2019 87.0 F. 71.1 F.
Sun Jun 30 12:08:15 2019 87.0 F. 71.1 F.
Sun Jun 30 13:08:15 2019 89.0 F. 72.0 F.
Sun Jun 30 14:08:15 2019 90.0 F. 71.1 F.
Sun Jun 30 15:08:14 2019 90.0 F. 70.0 F.
Sun Jun 30 16:08:14 2019 91.0 F. 68.0 F.
Sun Jun 30 17:08:15 2019 89.0 F. 71.1 F.
Sun Jun 30 18:08:15 2019 89.0 F. 70.0 F.
Sun Jun 30 19:08:15 2019 89.0 F. 71.1 F.
Sun Jun 30 20:08:15 2019 89.0 F. 71.1 F.
Sun Jun 30 21:08:07 2019 81.0 F. 77.0 F.
Sun Jun 30 22:08:04 2019 77.0 F. 66.9 F.
Sun Jun 30 23:08:04 2019 74.0 F. 66.0 F.
Mon Jul 1 00:08:04 2019 74.0 F. 66.0 F.
Mon Jul 1 01:08:05 2019 73.0 F. 68.0 F.
Mon Jul 1 02:08:05 2019 72.0 F. 68.0 F.
Mon Jul 1 03:08:04 2019 72.0 F. 70.0 F.
Mon Jul 1 04:08:04 2019 70.0 F. 68.0 F.
Mon Jul 1 05:08:05 2019 71.0 F. 68.0 F.
Mon Jul 1 06:08:04 2019 71.0 F. 68.0 F.
Mon Jul 1 07:08:05 2019 72.0 F. 69.1 F.
Mon Jul 1 08:08:04 2019 73.0 F. 69.1 F.
Mon Jul 1 09:08:05 2019 75.0 F. 70.0 F.
Mon Jul 1 10:08:05 2019 80.0 F. 71.1 F.
Mon Jul 1 11:08:04 2019 82.0 F. 72.0 F.
Mon Jul 1 12:08:05 2019 82.0 F. 72.0 F.
Mon Jul 1 13:08:04 2019 88.0 F. 73.9 F.
Mon Jul 1 14:08:05 2019 91.0 F. 75.9 F.
Mon Jul 1 15:08:05 2019 81.0 F. 73.0 F.
Mon Jul 1 16:08:05 2019 80.0 F. 72.0 F.
Mon Jul 1 17:08:06 2019 89.0 F. 73.0 F.
Mon Jul 1 18:08:05 2019 90.0 F. 73.9 F.
Mon Jul 1 19:08:05 2019 89.0 F. 73.9 F.
Mon Jul 1 20:09:00 2019
Mon Jul 1 21:09:00 2019
Mon Jul 1 22:08:59 2019
Mon Jul 1 23:08:15 2019 79.0 F. 73.9 F.
Tue Jul 2 00:08:15 2019 76.0 F. 73.0 F.
Tue Jul 2 01:08:14 2019 76.0 F. 73.0 F.
Tue Jul 2 02:08:15 2019 75.0 F. 73.0 F.
Tue Jul 2 03:08:15 2019 75.0 F. 72.0 F.
Tue Jul 2 04:08:14 2019 75.0 F. 72.0 F.
Tue Jul 2 05:08:14 2019 74.0 F. 72.0 F.
Tue Jul 2 06:08:14 2019 74.0 F. 71.1 F.
Tue Jul 2 07:08:14 2019 74.0 F. 72.0 F.
Tue Jul 2 08:08:15 2019 76.0 F. 73.0 F.
Tue Jul 2 09:08:15 2019 79.0 F. 73.0 F.
Tue Jul 2 10:08:08 2019 84.0 F. 73.9 F.
Tue Jul 2 11:08:05 2019 84.0 F. 73.9 F.
Tue Jul 2 12:08:04 2019 87.0 F. 73.0 F.
Tue Jul 2 13:08:05 2019 89.0 F. 73.0 F.
Tue Jul 2 14:08:04 2019 90.0 F. 73.0 F.
Tue Jul 2 15:08:05 2019 89.0 F. 72.0 F.
Tue Jul 2 16:08:04 2019 89.0 F. 72.0 F.
Tue Jul 2 17:08:05 2019 90.0 F. 72.0 F.
Tue Jul 2 18:08:05 2019 87.0 F. 73.0 F.
Tue Jul 2 19:08:04 2019 85.0 F. 71.1 F.
Tue Jul 2 20:08:07 2019 83.0 F. 73.0 F.
Tue Jul 2 21:08:05 2019 80.0 F. 73.9 F.
Tue Jul 2 22:08:06 2019 79.0 F. 73.0 F.
Tue Jul 2 23:08:04 2019 77.0 F. 73.0 F.
Wed Jul 3 00:08:04 2019 77.0 F. 73.0 F.
Wed Jul 3 01:08:05 2019 75.0 F. 72.0 F.
Wed Jul 3 02:08:04 2019 74.0 F. 72.0 F.
Wed Jul 3 03:08:05 2019 74.0 F. 72.0 F.
Wed Jul 3 04:08:04 2019 73.0 F. 72.0 F.
Wed Jul 3 05:08:04 2019 73.0 F. 71.1 F.
Wed Jul 3 06:08:04 2019 72.0 F. 71.1 F.
Wed Jul 3 07:08:05 2019 72.0 F. 71.1 F.
Wed Jul 3 08:08:13 2019 79.0 F. 73.9 F.
Wed Jul 3 09:08:04 2019 81.0 F. 73.0 F.
Wed Jul 3 10:08:05 2019 81.0 F. 73.0 F.
Wed Jul 3 11:08:04 2019 82.0 F. 73.9 F.
Wed Jul 3 12:08:05 2019 85.0 F. 73.9 F.
Wed Jul 3 13:08:05 2019 88.0 F. 73.0 F.
Wed Jul 3 14:08:05 2019 88.0 F. 71.1 F.
Wed Jul 3 15:08:04 2019 81.0 F. 66.0 F.
Wed Jul 3 16:08:05 2019 86.0 F. 71.1 F.
Wed Jul 3 17:08:05 2019 86.0 F. 73.0 F.
Wed Jul 3 18:08:05 2019 83.0 F. 73.0 F.
Wed Jul 3 19:08:05 2019 83.0 F. 72.0 F.
Wed Jul 3 20:08:05 2019 80.0 F. 73.0 F.
Wed Jul 3 21:08:05 2019 79.0 F. 73.9 F.
Wed Jul 3 22:08:13 2019 78.0 F. 69.1 F.
Wed Jul 3 23:08:40 2019
Thu Jul 4 00:08:04 2019 72.0 F. 69.1 F.
Thu Jul 4 01:08:05 2019 72.0 F. 69.1 F.
Thu Jul 4 02:08:05 2019 72.0 F. 70.0 F.
Thu Jul 4 03:08:05 2019 71.0 F. 70.0 F.
Thu Jul 4 04:08:04 2019 71.0 F. 68.0 F.
Thu Jul 4 05:08:04 2019 71.0 F. 68.0 F.
Thu Jul 4 06:08:05 2019 70.0 F. 68.0 F.
Thu Jul 4 07:08:05 2019 73.0 F. 69.1 F.
Thu Jul 4 08:08:04 2019 77.0 F. 71.1 F.
Thu Jul 4 09:08:04 2019 77.0 F. 71.1 F.
Thu Jul 4 10:08:05 2019 81.0 F. 73.9 F.
Thu Jul 4 11:08:27 2019 84.0 F. 75.0 F.
Thu Jul 4 12:08:05 2019 89.0 F. 75.0 F.
Thu Jul 4 13:08:04 2019 89.0 F. 75.0 F.
Thu Jul 4 14:08:05 2019 90.0 F. 73.0 F.
Thu Jul 4 15:08:05 2019 91.0 F. 75.0 F.
Thu Jul 4 16:08:04 2019 90.0 F. 73.9 F.
Thu Jul 4 17:08:05 2019 89.0 F. 73.9 F.
Thu Jul 4 18:08:04 2019 90.0 F. 73.9 F.
Thu Jul 4 19:08:04 2019 88.0 F. 73.0 F.
Thu Jul 4 20:08:05 2019 83.0 F. 73.9 F.
Thu Jul 4 21:08:04 2019 80.0 F. 73.9 F.
Thu Jul 4 22:08:04 2019 79.0 F. 75.0 F.
Thu Jul 4 23:08:05 2019 78.0 F. 75.0 F.
Fri Jul 5 00:08:04 2019 78.0 F. 75.0 F.
Fri Jul 5 01:08:05 2019 78.0 F. 75.0 F.
Fri Jul 5 02:08:04 2019 76.0 F. 73.9 F.
Fri Jul 5 03:08:05 2019 75.0 F. 73.0 F.
Fri Jul 5 04:08:05 2019 75.0 F. 73.0 F.
Fri Jul 5 05:08:05 2019 75.0 F. 73.0 F.
Fri Jul 5 06:08:04 2019 75.0 F. 73.0 F.
Fri Jul 5 07:08:05 2019 76.0 F. 73.9 F.
Fri Jul 5 08:08:05 2019 80.0 F. 75.0 F.
Fri Jul 5 09:08:05 2019 83.0 F. 77.0 F.
Fri Jul 5 10:08:05 2019 86.0 F. 75.0 F.
Fri Jul 5 11:08:05 2019 86.0 F. 73.9 F.
Fri Jul 5 12:08:04 2019 89.0 F. 75.0 F.
Fri Jul 5 13:08:04 2019 90.0 F. 75.0 F.
Fri Jul 5 14:08:05 2019 91.0 F. 75.0 F.
Fri Jul 5 15:08:04 2019 91.0 F. 75.9 F.
Fri Jul 5 16:08:04 2019 90.0 F. 75.0 F.
Fri Jul 5 17:08:05 2019 90.0 F. 75.0 F.
Fri Jul 5 18:08:05 2019 75.0 F. 72.0 F.
Fri Jul 5 19:08:05 2019 75.0 F. 72.0 F.
Fri Jul 5 20:08:04 2019 75.0 F. 73.0 F.
Fri Jul 5 21:08:05 2019 75.0 F. 73.0 F.
Fri Jul 5 22:08:05 2019 75.0 F. 73.0 F.
Fri Jul 5 23:08:05 2019 75.0 F. 73.0 F.
Sat Jul 6 00:08:05 2019 75.0 F. 73.0 F.
Sat Jul 6 01:08:05 2019 74.0 F. 73.0 F.
Sat Jul 6 02:08:05 2019 74.0 F. 73.0 F.
Sat Jul 6 03:08:05 2019 74.0 F. 73.0 F.
Sat Jul 6 04:08:04 2019 74.0 F. 73.0 F.
Sat Jul 6 05:08:04 2019 74.0 F. 73.0 F.
Sat Jul 6 06:08:05 2019 73.0 F. 72.0 F.
Sat Jul 6 07:08:05 2019 74.0 F. 72.0 F.
Sat Jul 6 08:08:04 2019 75.0 F. 73.0 F.
Sat Jul 6 09:08:05 2019 76.0 F. 73.0 F.
Sat Jul 6 10:08:05 2019 78.0 F. 73.9 F.
Sat Jul 6 11:08:05 2019 80.0 F. 73.9 F.
Sat Jul 6 12:08:05 2019 83.0 F. 75.0 F.
Sat Jul 6 13:08:05 2019 83.0 F. 73.9 F.
Sat Jul 6 14:08:05 2019 86.0 F. 73.9 F.
Sat Jul 6 15:08:05 2019 88.0 F. 75.9 F.
Sat Jul 6 16:08:05 2019 88.0 F. 75.9 F.
Sat Jul 6 17:08:05 2019 89.0 F. 75.0 F.
Sat Jul 6 18:08:05 2019 89.0 F. 73.9 F.
Sat Jul 6 19:08:05 2019 87.0 F. 75.0 F.
Sat Jul 6 20:08:05 2019 87.0 F. 75.0 F.
Sat Jul 6 21:08:05 2019 81.0 F. 75.0 F.
Sat Jul 6 22:08:09 2019 80.0 F. 75.0 F.
Sat Jul 6 23:08:05 2019 79.0 F. 75.0 F.
Sun Jul 7 00:08:04 2019 77.0 F. 75.0 F.
Sun Jul 7 01:08:09 2019 77.0 F. 73.9 F.
Sun Jul 7 02:08:05 2019 77.0 F. 73.9 F.
Sun Jul 7 03:08:05 2019 76.0 F. 73.0 F.
Sun Jul 7 04:08:05 2019 76.0 F. 73.9 F.
Sun Jul 7 05:08:05 2019 75.0 F. 73.0 F.
Sun Jul 7 06:08:05 2019 73.0 F. 72.0 F.
Sun Jul 7 07:08:05 2019 76.0 F. 73.9 F.
Sun Jul 7 08:08:05 2019 80.0 F. 75.0 F.
Sun Jul 7 09:08:12 2019 82.0 F. 75.9 F.
Sun Jul 7 10:08:05 2019 82.0 F. 75.9 F.
Sun Jul 7 11:08:05 2019 86.0 F. 75.0 F.
Sun Jul 7 12:08:04 2019 89.0 F. 75.0 F.
Sun Jul 7 13:08:05 2019 89.0 F. 75.9 F.
Sun Jul 7 14:08:05 2019 87.0 F. 73.9 F.
Sun Jul 7 15:08:05 2019 89.0 F. 73.9 F.
Sun Jul 7 16:08:05 2019 90.0 F. 73.0 F.
Sun Jul 7 17:08:05 2019 90.0 F. 73.0 F.
Sun Jul 7 18:08:04 2019 86.0 F. 73.0 F.
Sun Jul 7 19:08:05 2019 87.0 F. 73.0 F.
Sun Jul 7 20:08:05 2019 87.0 F. 73.0 F.
Sun Jul 7 21:08:05 2019 80.0 F. 73.0 F.
Sun Jul 7 22:08:04 2019 79.0 F. 72.0 F.
Sun Jul 7 23:08:05 2019 78.0 F. 72.0 F.
Mon Jul 8 00:08:05 2019 76.0 F. 72.0 F.
Mon Jul 8 01:08:05 2019 76.0 F. 72.0 F.
Mon Jul 8 02:08:05 2019 74.0 F. 71.1 F.
Mon Jul 8 03:08:05 2019 73.0 F. 70.0 F.
Mon Jul 8 04:08:04 2019 72.0 F. 70.0 F.
Mon Jul 8 05:08:05 2019 70.0 F. 69.1 F.
Mon Jul 8 06:08:04 2019 71.0 F. 69.1 F.
Mon Jul 8 07:08:05 2019 71.0 F. 69.1 F.
Mon Jul 8 08:08:05 2019 76.0 F. 71.1 F.
Mon Jul 8 09:08:05 2019 79.0 F. 72.0 F.
Mon Jul 8 10:08:05 2019 82.0 F. 72.0 F.
Mon Jul 8 11:08:04 2019 84.0 F. 72.0 F.
Mon Jul 8 12:08:05 2019 85.0 F. 71.1 F.
Mon Jul 8 13:08:05 2019 87.0 F. 71.1 F.
Mon Jul 8 14:08:12 2019 87.0 F. 71.1 F.
Mon Jul 8 15:08:05 2019 89.0 F. 71.1 F.
Mon Jul 8 16:08:04 2019 89.0 F. 71.1 F.
Mon Jul 8 17:08:04 2019 88.0 F. 71.1 F.
Mon Jul 8 18:08:04 2019 86.0 F. 72.0 F.
Mon Jul 8 19:08:05 2019 87.0 F. 72.0 F.
Mon Jul 8 20:08:04 2019 82.0 F. 72.0 F.
Mon Jul 8 21:08:04 2019 79.0 F. 73.0 F.
Mon Jul 8 22:08:05 2019 77.0 F. 73.0 F.
Mon Jul 8 23:08:05 2019 77.0 F. 73.0 F.
Tue Jul 9 00:08:05 2019 77.0 F. 73.9 F.
Tue Jul 9 01:08:04 2019 74.0 F. 72.0 F.
Tue Jul 9 02:08:05 2019 74.0 F. 72.0 F.
Tue Jul 9 03:08:05 2019 73.0 F. 71.1 F.
Tue Jul 9 04:08:05 2019 72.0 F. 71.1 F.
Tue Jul 9 05:08:05 2019 71.0 F. 70.0 F.
Tue Jul 9 06:08:05 2019 71.0 F. 70.0 F.
Tue Jul 9 07:08:05 2019 74.0 F. 72.0 F.
Tue Jul 9 08:09:00 2019
Tue Jul 9 09:08:05 2019 82.0 F. 73.0 F.
Tue Jul 9 10:08:40 2019
Tue Jul 9 11:08:05 2019 87.0 F. 73.9 F.
Tue Jul 9 12:08:05 2019 88.0 F. 73.0 F.
Tue Jul 9 13:08:04 2019 89.0 F. 72.0 F.
Tue Jul 9 14:08:04 2019 90.0 F. 73.0 F.
Tue Jul 9 15:08:05 2019 91.0 F. 73.0 F.
Tue Jul 9 16:08:05 2019 90.0 F. 73.0 F.
Tue Jul 9 17:08:40 2019
Tue Jul 9 18:08:05 2019 87.0 F. 75.0 F.
Tue Jul 9 19:08:05 2019 86.0 F. 75.9 F.
Tue Jul 9 20:08:05 2019 82.0 F. 73.9 F.
Tue Jul 9 21:08:04 2019 80.0 F. 73.9 F.
Tue Jul 9 22:08:05 2019 78.0 F. 75.0 F.
Tue Jul 9 23:08:05 2019 78.0 F. 75.0 F.
Wed Jul 10 00:08:05 2019 78.0 F. 75.0 F.
Wed Jul 10 01:08:04 2019 78.0 F. 75.0 F.
Wed Jul 10 02:08:05 2019 78.0 F. 73.9 F.
Wed Jul 10 03:08:05 2019 76.0 F. 75.0 F.
Wed Jul 10 04:08:04 2019 75.0 F. 73.9 F.
Wed Jul 10 05:08:04 2019 75.0 F. 73.9 F.
Wed Jul 10 06:08:04 2019 74.0 F. 73.9 F.
Wed Jul 10 07:08:04 2019 77.0 F. 75.9 F.
Wed Jul 10 08:08:05 2019 81.0 F. 77.0 F.
Wed Jul 10 09:08:05 2019 85.0 F. 77.0 F.
Wed Jul 10 10:08:05 2019 88.0 F. 78.1 F.
Wed Jul 10 11:08:04 2019 90.0 F. 77.0 F.
Wed Jul 10 12:08:05 2019 90.0 F. 77.0 F.
Wed Jul 10 13:08:05 2019 93.0 F. 75.9 F.
Wed Jul 10 14:08:05 2019 93.0 F. 77.0 F.
Wed Jul 10 15:08:05 2019 94.0 F. 75.9 F.
Wed Jul 10 16:08:05 2019 92.0 F. 75.9 F.
Wed Jul 10 17:08:04 2019 91.0 F. 77.0 F.
Wed Jul 10 18:08:05 2019 91.0 F. 77.0 F.
Wed Jul 10 19:08:05 2019 88.0 F. 78.1 F.
Wed Jul 10 20:08:05 2019 88.0 F. 78.1 F.
Wed Jul 10 21:08:05 2019 79.0 F. 71.1 F.
Wed Jul 10 22:08:05 2019 77.0 F. 70.0 F.
Wed Jul 10 23:08:05 2019 77.0 F. 71.1 F.
Thu Jul 11 00:08:05 2019 78.0 F. 71.1 F.
Thu Jul 11 01:08:05 2019 77.0 F. 72.0 F.
Thu Jul 11 02:08:05 2019 74.0 F. 72.0 F.
Thu Jul 11 03:08:05 2019 75.0 F. 71.1 F.
Thu Jul 11 04:08:05 2019 74.0 F. 71.1 F.
Thu Jul 11 05:08:05 2019 72.0 F. 70.0 F.
Thu Jul 11 06:08:05 2019 74.0 F. 72.0 F.
Thu Jul 11 07:08:05 2019 74.0 F. 70.0 F.
Thu Jul 11 08:08:05 2019 77.0 F. 69.1 F.
Thu Jul 11 09:08:05 2019 80.0 F. 66.9 F.
Thu Jul 11 10:08:04 2019 77.0 F. 69.1 F.
Thu Jul 11 11:08:05 2019 84.0 F. 66.0 F.
Thu Jul 11 12:08:05 2019 84.0 F. 66.0 F.
Thu Jul 11 13:08:05 2019 87.0 F. 66.0 F.
Thu Jul 11 14:08:05 2019 87.0 F. 66.0 F.
Thu Jul 11 15:08:05 2019 84.0 F. 66.0 F.
Thu Jul 11 16:08:07 2019 85.0 F. 66.9 F.
Thu Jul 11 17:08:05 2019 88.0 F. 66.9 F.
Thu Jul 11 18:08:05 2019 86.0 F. 66.9 F.
Thu Jul 11 19:08:06 2019 83.0 F. 66.0 F.
Thu Jul 11 20:08:05 2019 80.0 F. 66.0 F.
Thu Jul 11 21:08:06 2019 76.0 F. 66.9 F.
Thu Jul 11 22:08:04 2019 74.0 F. 68.0 F.
Thu Jul 11 23:08:05 2019 72.0 F. 68.0 F.
Fri Jul 12 00:08:05 2019 72.0 F. 68.0 F.
Fri Jul 12 01:08:05 2019 69.0 F. 66.9 F.
Fri Jul 12 02:08:05 2019 69.0 F. 66.9 F.
Fri Jul 12 03:08:05 2019 69.0 F. 68.0 F.
Fri Jul 12 04:08:05 2019 68.0 F. 68.0 F.
Fri Jul 12 05:08:04 2019 68.0 F. 66.9 F.
Fri Jul 12 06:08:05 2019 67.0 F. 66.0 F.
Fri Jul 12 07:08:05 2019 71.0 F. 69.1 F.
Fri Jul 12 08:08:10 2019 74.0 F. 69.1 F.
Fri Jul 12 09:08:05 2019 78.0 F. 68.0 F.
Fri Jul 12 10:08:05 2019 81.0 F. 66.9 F.
Fri Jul 12 11:08:04 2019 83.0 F. 68.0 F.
Fri Jul 12 12:08:05 2019 83.0 F. 66.9 F.
Fri Jul 12 13:08:05 2019 86.0 F. 64.0 F.
Fri Jul 12 14:08:05 2019 87.0 F. 64.0 F.
Fri Jul 12 15:08:05 2019 87.0 F. 64.0 F.
Fri Jul 12 16:08:05 2019 88.0 F. 66.0 F.
Fri Jul 12 17:08:05 2019 88.0 F. 66.0 F.
Fri Jul 12 18:08:05 2019 88.0 F. 66.0 F.
Fri Jul 12 19:08:05 2019 85.0 F. 66.0 F.
Fri Jul 12 20:08:04 2019 82.0 F. 66.9 F.
Fri Jul 12 21:08:05 2019 77.0 F. 66.9 F.
Fri Jul 12 22:08:05 2019 73.0 F. 66.9 F.
Fri Jul 12 23:08:05 2019 73.0 F. 64.0 F.
Sat Jul 13 00:08:05 2019 70.0 F. 64.0 F.
Sat Jul 13 01:08:04 2019 68.0 F. 64.0 F.
Sat Jul 13 02:08:05 2019 66.0 F. 64.9 F.
Sat Jul 13 03:08:05 2019 66.0 F. 64.0 F.
Sat Jul 13 04:08:06 2019 65.0 F. 64.0 F.
Sat Jul 13 05:08:05 2019 64.0 F. 63.0 F.
Sat Jul 13 06:08:05 2019 64.0 F. 63.0 F.
Sat Jul 13 07:08:05 2019 67.0 F. 64.0 F.
Sat Jul 13 08:08:05 2019 72.0 F. 64.9 F.
Sat Jul 13 09:09:00 2019
Sat Jul 13 10:09:00 2019
Sat Jul 13 11:08:59 2019
Sat Jul 13 12:09:00 2019
Sat Jul 13 13:09:00 2019
Sat Jul 13 14:09:00 2019
Sat Jul 13 15:09:00 2019
Sat Jul 13 16:08:05 2019 91.0 F. 66.9 F.
Sat Jul 13 17:08:14 2019 92.0 F. 66.9 F.
Sat Jul 13 18:08:15 2019 91.0 F. 66.9 F.
Sat Jul 13 19:08:15 2019 90.0 F. 66.9 F.
Sat Jul 13 20:08:15 2019 90.0 F. 66.9 F.
Sat Jul 13 21:08:15 2019 80.0 F. 75.0 F.
Sat Jul 13 22:08:15 2019 78.0 F. 73.9 F.
Sat Jul 13 23:09:00 2019
Sun Jul 14 00:08:29 2019 79.0 F. 73.0 F.
Sun Jul 14 01:08:15 2019 75.0 F. 70.0 F.
Sun Jul 14 02:08:15 2019 73.0 F. 70.0 F.
Sun Jul 14 03:08:15 2019 72.0 F. 70.0 F.
Sun Jul 14 04:08:15 2019 71.0 F. 70.0 F.
Sun Jul 14 05:08:15 2019 71.0 F. 70.0 F.
Sun Jul 14 06:08:15 2019 72.0 F. 70.0 F.
Sun Jul 14 07:08:15 2019 73.0 F. 71.1 F.
Sun Jul 14 08:08:15 2019 76.0 F. 73.0 F.
Sun Jul 14 09:08:15 2019 79.0 F. 72.0 F.
Sun Jul 14 10:08:15 2019 84.0 F. 72.0 F.
Sun Jul 14 11:08:15 2019 84.0 F. 72.0 F.
Sun Jul 14 12:08:15 2019 89.0 F. 70.0 F.
Sun Jul 14 13:08:15 2019 88.0 F. 71.1 F.
Sun Jul 14 14:08:15 2019 88.0 F. 71.1 F.
Sun Jul 14 15:08:15 2019 86.0 F. 66.9 F.
Sun Jul 14 16:08:15 2019 84.0 F. 66.9 F.
Sun Jul 14 17:08:15 2019 85.0 F. 70.0 F.
Sun Jul 14 18:08:14 2019 82.0 F. 69.1 F.
Sun Jul 14 19:08:14 2019 79.0 F. 68.0 F.
Sun Jul 14 20:08:15 2019 77.0 F. 66.9 F.
Sun Jul 14 21:08:14 2019 75.0 F. 66.9 F.
Sun Jul 14 22:08:15 2019 74.0 F. 68.0 F.
Sun Jul 14 23:08:15 2019 73.0 F. 66.9 F.
Mon Jul 15 00:08:15 2019 73.0 F. 66.0 F.
Mon Jul 15 01:08:15 2019 72.0 F. 66.9 F.
Mon Jul 15 02:08:15 2019 72.0 F. 68.0 F.
Mon Jul 15 03:08:15 2019 72.0 F. 68.0 F.
Mon Jul 15 04:08:15 2019 72.0 F. 68.0 F.
Mon Jul 15 05:08:14 2019 71.0 F. 68.0 F.
Mon Jul 15 06:08:15 2019 71.0 F. 68.0 F.
Mon Jul 15 07:08:16 2019 73.0 F. 68.0 F.
Mon Jul 15 08:08:15 2019 72.0 F. 68.0 F.
Mon Jul 15 09:08:15 2019 71.0 F. 68.0 F.
Mon Jul 15 10:08:16 2019 71.0 F. 69.1 F.
Mon Jul 15 11:08:15 2019 71.0 F. 70.0 F.
Mon Jul 15 12:08:15 2019 72.0 F. 70.0 F.
Mon Jul 15 13:08:16 2019 71.0 F. 70.0 F.
Mon Jul 15 14:08:15 2019 71.0 F. 70.0 F.
Mon Jul 15 15:08:15 2019 72.0 F. 70.0 F.
Mon Jul 15 16:08:15 2019 73.0 F. 71.1 F.
Mon Jul 15 17:08:14 2019 73.0 F. 72.0 F.
Mon Jul 15 18:08:15 2019 75.0 F. 73.0 F.
Mon Jul 15 19:08:15 2019 75.0 F. 72.0 F.
Mon Jul 15 20:08:14 2019 75.0 F. 72.0 F.
Mon Jul 15 21:08:14 2019 74.0 F. 72.0 F.
Mon Jul 15 22:08:14 2019 75.0 F. 72.0 F.
Mon Jul 15 23:08:15 2019 74.0 F. 72.0 F.
Tue Jul 16 00:08:15 2019 73.0 F. 72.0 F.
Tue Jul 16 01:08:14 2019 74.0 F. 72.0 F.
Tue Jul 16 02:08:14 2019 74.0 F. 73.0 F.
Tue Jul 16 03:08:15 2019 74.0 F. 72.0 F.
Tue Jul 16 04:08:15 2019 73.0 F. 72.0 F.
Tue Jul 16 05:08:14 2019 73.0 F. 71.1 F.
Tue Jul 16 06:08:14 2019 73.0 F. 71.1 F.
Tue Jul 16 07:08:15 2019 74.0 F. 72.0 F.
Tue Jul 16 08:08:15 2019 73.0 F. 72.0 F.
Tue Jul 16 09:08:15 2019 74.0 F. 73.0 F.
Tue Jul 16 10:08:14 2019 75.0 F. 73.0 F.
Tue Jul 16 11:08:05 2019 78.0 F. 73.9 F.
Tue Jul 16 12:08:04 2019 76.0 F. 73.9 F.
Tue Jul 16 13:08:35 2019 76.0 F. 73.9 F.
Tue Jul 16 14:08:40 2019
Tue Jul 16 15:08:05 2019 83.0 F. 75.0 F.
Tue Jul 16 16:08:22 2019 83.0 F. 73.9 F.
Tue Jul 16 17:08:05 2019 83.0 F. 75.0 F.
Tue Jul 16 18:08:05 2019 79.0 F. 75.9 F.
Tue Jul 16 19:08:04 2019 76.0 F. 73.9 F.
Tue Jul 16 20:08:04 2019 76.0 F. 73.9 F.
Tue Jul 16 21:08:04 2019 76.0 F. 75.0 F.
Tue Jul 16 22:08:04 2019 76.0 F. 73.9 F.
Tue Jul 16 23:08:05 2019 75.0 F. 73.9 F.
Wed Jul 17 00:08:05 2019 75.0 F. 73.9 F.
Wed Jul 17 01:08:04 2019 75.0 F. 73.9 F.
Wed Jul 17 02:08:04 2019 75.0 F. 73.9 F.
Wed Jul 17 03:08:04 2019 75.0 F. 73.9 F.
Wed Jul 17 04:08:05 2019 75.0 F. 73.9 F.
Wed Jul 17 05:08:04 2019 74.0 F. 73.0 F.
Wed Jul 17 06:08:05 2019 73.0 F. 72.0 F.
Wed Jul 17 07:08:05 2019 75.0 F. 75.0 F.
Wed Jul 17 08:08:39 2019
Wed Jul 17 09:08:05 2019 81.0 F. 75.9 F.
Wed Jul 17 10:08:04 2019 83.0 F. 75.9 F.
Wed Jul 17 11:08:05 2019 83.0 F. 75.9 F.
Wed Jul 17 12:08:04 2019 87.0 F. 73.9 F.
Wed Jul 17 13:08:05 2019 87.0 F. 73.9 F.
Wed Jul 17 14:08:05 2019 90.0 F. 75.0 F.
Wed Jul 17 15:08:05 2019 91.0 F. 75.0 F.
Wed Jul 17 16:08:05 2019 92.0 F. 75.0 F.
Wed Jul 17 17:08:05 2019 92.0 F. 75.0 F.
Wed Jul 17 18:08:05 2019 90.0 F. 77.0 F.
Wed Jul 17 19:08:05 2019 86.0 F. 78.1 F.
Wed Jul 17 20:08:05 2019 74.0 F. 72.0 F.
Wed Jul 17 21:08:05 2019 74.0 F. 71.1 F.
Wed Jul 17 22:08:05 2019 73.0 F. 70.0 F.
Wed Jul 17 23:08:05 2019 72.0 F. 71.1 F.
Thu Jul 18 00:08:05 2019 72.0 F. 71.1 F.
Thu Jul 18 01:08:04 2019 73.0 F. 71.1 F.
Thu Jul 18 02:08:04 2019 73.0 F. 71.1 F.
Thu Jul 18 03:08:04 2019 73.0 F. 71.1 F.
Thu Jul 18 04:08:05 2019 72.0 F. 71.1 F.
Thu Jul 18 05:08:04 2019 72.0 F. 71.1 F.
Thu Jul 18 06:08:04 2019 73.0 F. 71.1 F.
Thu Jul 18 07:08:04 2019 73.0 F. 71.1 F.
Thu Jul 18 08:08:05 2019 74.0 F. 71.1 F.
Thu Jul 18 09:08:05 2019 74.0 F. 71.1 F.
Thu Jul 18 10:08:04 2019 77.0 F. 73.0 F.
Thu Jul 18 11:08:05 2019 82.0 F. 73.9 F.
Thu Jul 18 12:08:04 2019 85.0 F. 75.9 F.
Thu Jul 18 13:08:04 2019 86.0 F. 75.9 F.
Thu Jul 18 14:08:05 2019 88.0 F. 77.0 F.
Thu Jul 18 15:08:05 2019 89.0 F. 79.0 F.
Thu Jul 18 16:08:05 2019 91.0 F. 79.0 F.
Thu Jul 18 17:08:05 2019 91.0 F. 80.1 F.
Thu Jul 18 18:08:05 2019 89.0 F. 78.1 F.
Thu Jul 18 19:08:05 2019 88.0 F. 78.1 F.
Thu Jul 18 20:08:05 2019 85.0 F. 78.1 F.
Thu Jul 18 21:08:05 2019 83.0 F. 79.0 F.
Thu Jul 18 22:08:05 2019 82.0 F. 79.0 F.
Thu Jul 18 23:08:05 2019 82.0 F. 79.0 F.
Fri Jul 19 00:08:04 2019 81.0 F. 78.1 F.
Fri Jul 19 01:08:05 2019 80.0 F. 78.1 F.
Fri Jul 19 02:08:04 2019 80.0 F. 78.1 F.
Fri Jul 19 03:08:04 2019 79.0 F. 75.9 F.
Fri Jul 19 04:08:04 2019 79.0 F. 75.9 F.
Fri Jul 19 05:08:04 2019 77.0 F. 75.0 F.
Fri Jul 19 06:08:05 2019 77.0 F. 75.0 F.
Fri Jul 19 07:08:04 2019 77.0 F. 75.0 F.
Fri Jul 19 08:08:05 2019 81.0 F. 75.9 F.
Fri Jul 19 09:08:12 2019 84.0 F. 75.9 F.
Fri Jul 19 10:08:05 2019 87.0 F. 75.0 F.
Fri Jul 19 11:08:05 2019 88.0 F. 75.9 F.
Fri Jul 19 12:09:00 2019
Fri Jul 19 13:09:00 2019
Fri Jul 19 14:08:05 2019 92.0 F. 77.0 F.
Fri Jul 19 15:08:59 2019
Fri Jul 19 16:09:00 2019
Fri Jul 19 17:09:00 2019
Fri Jul 19 18:09:00 2019
Fri Jul 19 19:08:04 2019 89.0 F. 75.9 F.
Fri Jul 19 20:08:05 2019 85.0 F. 75.9 F.
Fri Jul 19 21:08:04 2019 85.0 F. 75.9 F.
Fri Jul 19 22:08:05 2019 80.0 F. 75.9 F.
Fri Jul 19 23:08:05 2019 80.0 F. 75.9 F.
Sat Jul 20 00:08:05 2019 80.0 F. 75.9 F.
Sat Jul 20 01:08:05 2019 77.0 F. 75.0 F.
Sat Jul 20 02:08:05 2019 77.0 F. 75.0 F.